sensor_id;sensor_type;location;lat;lon;timestamp;P1;durP1;ratioP1;P2;durP2;ratioP2
934;SDS011;454;53.254;10.400;2022-11-24T05:00:41;5.72;;;2.58;;
934;SDS011;454;53.254;10.400;2022-11-24T05:03:07;3.05;;;2.85;;
934;SDS011;454;53.254;10.400;2022-11-24T05:05:34;1.70;;;1.70;;
934;SDS011;454;53.254;10.400;2022-11-24T05:08:01;2.50;;;2.40;;
934;SDS011;454;53.254;10.400;2022-11-24T05:10:27;3.08;;;2.97;;
934;SDS011;454;53.254;10.400;2022-11-24T05:13:00;2.00;;;1.88;;
934;SDS011;454;53.254;10.400;2022-11-24T05:15:28;1.98;;;1.88;;
934;SDS011;454;53.254;10.400;2022-11-24T05:17:56;1.88;;;1.77;;
934;SDS011;454;53.254;10.400;2022-11-24T05:20:23;2.75;;;2.65;;
934;SDS011;454;53.254;10.400;2022-11-24T05:22:50;0.80;;;0.77;;
934;SDS011;454;53.254;10.400;2022-11-24T05:25:17;3.28;;;3.20;;
934;SDS011;454;53.254;10.400;2022-11-24T05:27:44;1.15;;;1.15;;
934;SDS011;454;53.254;10.400;2022-11-24T05:30:11;1.65;;;1.48;;
934;SDS011;454;53.254;10.400;2022-11-24T05:32:38;1.48;;;1.48;;
934;SDS011;454;53.254;10.400;2022-11-24T05:35:06;2.55;;;2.45;;
934;SDS011;454;53.254;10.400;2022-11-24T05:37:35;2.05;;;1.95;;
934;SDS011;454;53.254;10.400;2022-11-24T05:40:02;4.55;;;2.28;;
934;SDS011;454;53.254;10.400;2022-11-24T05:42:29;2.03;;;1.92;;
934;SDS011;454;53.254;10.400;2022-11-24T05:45:06;2.67;;;2.45;;
934;SDS011;454;53.254;10.400;2022-11-24T05:47:34;0.90;;;0.90;;
934;SDS011;454;53.254;10.400;2022-11-24T05:50:01;6.55;;;3.40;;
934;SDS011;454;53.254;10.400;2022-11-24T05:52:29;1.88;;;1.77;;
934;SDS011;454;53.254;10.400;2022-11-24T05:54:56;3.92;;;2.58;;
934;SDS011;454;53.254;10.400;2022-11-24T05:57:22;5.60;;;2.33;;
934;SDS011;454;53.254;10.400;2022-11-24T05:59:49;2.22;;;2.13;;
934;SDS011;454;53.254;10.400;2022-11-24T06:02:16;1.85;;;1.75;;
934;SDS011;454;53.254;10.400;2022-11-24T06:04:43;2.22;;;2.13;;
934;SDS011;454;53.254;10.400;2022-11-24T06:07:10;1.55;;;1.45;;
934;SDS011;454;53.254;10.400;2022-11-24T06:09:39;2.30;;;2.20;;
934;SDS011;454;53.254;10.400;2022-11-24T06:12:07;2.20;;;2.20;;
934;SDS011;454;53.254;10.400;2022-11-24T06:14:35;2.83;;;2.40;;
934;SDS011;454;53.254;10.400;2022-11-24T06:17:02;2.90;;;2.75;;
934;SDS011;454;53.254;10.400;2022-11-24T06:19:29;7.32;;;3.45;;
934;SDS011;454;53.254;10.400;2022-11-24T06:21:56;0.82;;;0.82;;
934;SDS011;454;53.254;10.400;2022-11-24T06:24:23;5.55;;;3.75;;
934;SDS011;454;53.254;10.400;2022-11-24T06:26:51;2.00;;;1.65;;
934;SDS011;454;53.254;10.400;2022-11-24T06:29:18;2.45;;;2.25;;
934;SDS011;454;53.254;10.400;2022-11-24T06:31:44;2.13;;;2.13;;
934;SDS011;454;53.254;10.400;2022-11-24T06:34:11;2.25;;;2.05;;
934;SDS011;454;53.254;10.400;2022-11-24T06:36:38;2.40;;;2.25;;
934;SDS011;454;53.254;10.400;2022-11-24T06:39:05;2.72;;;2.40;;
934;SDS011;454;53.254;10.400;2022-11-24T06:41:32;14.43;;;3.75;;
934;SDS011;454;53.254;10.400;2022-11-24T06:44:02;2.33;;;2.05;;
934;SDS011;454;53.254;10.400;2022-11-24T06:46:29;2.85;;;2.65;;
934;SDS011;454;53.254;10.400;2022-11-24T06:48:56;7.35;;;1.75;;
934;SDS011;454;53.254;10.400;2022-11-24T06:51:23;1.58;;;1.52;;
934;SDS011;454;53.254;10.400;2022-11-24T06:53:51;1.60;;;1.60;;
934;SDS011;454;53.254;10.400;2022-11-24T06:56:18;2.40;;;2.30;;
934;SDS011;454;53.254;10.400;2022-11-24T06:58:46;3.22;;;3.03;;
934;SDS011;454;53.254;10.400;2022-11-24T07:01:15;4.97;;;4.65;;
934;SDS011;454;53.254;10.400;2022-11-24T07:03:43;2.15;;;1.95;;
934;SDS011;454;53.254;10.400;2022-11-24T07:06:09;4.10;;;2.95;;
934;SDS011;454;53.254;10.400;2022-11-24T07:08:36;2.35;;;2.25;;
934;SDS011;454;53.254;10.400;2022-11-24T07:11:03;2.95;;;2.85;;
934;SDS011;454;53.254;10.400;2022-11-24T07:13:31;2.35;;;2.25;;
934;SDS011;454;53.254;10.400;2022-11-24T07:15:57;3.38;;;2.90;;
934;SDS011;454;53.254;10.400;2022-11-24T07:18:25;2.08;;;1.92;;
934;SDS011;454;53.254;10.400;2022-11-24T07:20:52;10.43;;;8.30;;
934;SDS011;454;53.254;10.400;2022-11-24T07:23:19;4.00;;;3.70;;
934;SDS011;454;53.254;10.400;2022-11-24T07:25:45;6.47;;;2.80;;
934;SDS011;454;53.254;10.400;2022-11-24T07:28:12;2.10;;;2.00;;
934;SDS011;454;53.254;10.400;2022-11-24T07:30:39;5.30;;;2.72;;
934;SDS011;454;53.254;10.400;2022-11-24T07:33:05;1.73;;;1.70;;
934;SDS011;454;53.254;10.400;2022-11-24T07:35:33;2.33;;;2.22;;
934;SDS011;454;53.254;10.400;2022-11-24T07:38:00;6.82;;;2.00;;
934;SDS011;454;53.254;10.400;2022-11-24T07:40:27;3.15;;;3.03;;
934;SDS011;454;53.254;10.400;2022-11-24T07:42:53;3.75;;;1.60;;
934;SDS011;454;53.254;10.400;2022-11-24T07:45:20;5.65;;;2.17;;
934;SDS011;454;53.254;10.400;2022-11-24T07:47:47;3.30;;;3.10;;
934;SDS011;454;53.254;10.400;2022-11-24T07:50:14;4.00;;;3.60;;
934;SDS011;454;53.254;10.400;2022-11-24T07:52:42;4.53;;;3.65;;
934;SDS011;454;53.254;10.400;2022-11-24T07:55:09;2.33;;;2.20;;
934;SDS011;454;53.254;10.400;2022-11-24T07:57:36;2.85;;;2.65;;
934;SDS011;454;53.254;10.400;2022-11-24T08:00:03;2.80;;;2.13;;
934;SDS011;454;53.254;10.400;2022-11-24T08:02:30;2.58;;;2.40;;
934;SDS011;454;53.254;10.400;2022-11-24T08:04:57;2.67;;;2.40;;
934;SDS011;454;53.254;10.400;2022-11-24T08:07:24;2.15;;;2.10;;
934;SDS011;454;53.254;10.400;2022-11-24T08:09:52;1.95;;;1.85;;
934;SDS011;454;53.254;10.400;2022-11-24T08:12:18;3.13;;;3.03;;
934;SDS011;454;53.254;10.400;2022-11-24T08:14:46;2.38;;;2.28;;
934;SDS011;454;53.254;10.400;2022-11-24T08:17:14;2.60;;;2.58;;
934;SDS011;454;53.254;10.400;2022-11-24T08:19:41;2.42;;;2.17;;
934;SDS011;454;53.254;10.400;2022-11-24T08:22:08;3.65;;;2.72;;
934;SDS011;454;53.254;10.400;2022-11-24T08:24:35;2.60;;;2.50;;
934;SDS011;454;53.254;10.400;2022-11-24T08:27:03;1.90;;;1.83;;
934;SDS011;454;53.254;10.400;2022-11-24T08:29:30;2.28;;;2.17;;
934;SDS011;454;53.254;10.400;2022-11-24T08:31:57;2.63;;;2.22;;
934;SDS011;454;53.254;10.400;2022-11-24T08:34:24;4.53;;;2.03;;
934;SDS011;454;53.254;10.400;2022-11-24T08:36:51;4.05;;;3.88;;
934;SDS011;454;53.254;10.400;2022-11-24T08:39:18;5.60;;;5.10;;
934;SDS011;454;53.254;10.400;2022-11-24T08:41:44;4.75;;;3.42;;
934;SDS011;454;53.254;10.400;2022-11-24T08:44:13;8.95;;;6.55;;
934;SDS011;454;53.254;10.400;2022-11-24T08:46:42;5.68;;;5.35;;
934;SDS011;454;53.254;10.400;2022-11-24T08:49:09;5.35;;;4.95;;
934;SDS011;454;53.254;10.400;2022-11-24T08:51:38;3.08;;;2.88;;
934;SDS011;454;53.254;10.400;2022-11-24T08:54:05;3.58;;;3.05;;
934;SDS011;454;53.254;10.400;2022-11-24T08:56:34;3.33;;;3.13;;
934;SDS011;454;53.254;10.400;2022-11-24T08:59:01;3.17;;;2.95;;
934;SDS011;454;53.254;10.400;2022-11-24T09:01:29;2.60;;;2.50;;
934;SDS011;454;53.254;10.400;2022-11-24T09:03:56;3.25;;;2.92;;
934;SDS011;454;53.254;10.400;2022-11-24T09:06:23;4.80;;;2.67;;
934;SDS011;454;53.254;10.400;2022-11-24T09:08:52;2.25;;;2.22;;
934;SDS011;454;53.254;10.400;2022-11-24T09:11:19;3.15;;;1.83;;
934;SDS011;454;53.254;10.400;2022-11-24T09:13:46;3.05;;;2.85;;
934;SDS011;454;53.254;10.400;2022-11-24T09:16:14;3.42;;;1.23;;
934;SDS011;454;53.254;10.400;2022-11-24T09:18:43;3.08;;;2.88;;
934;SDS011;454;53.254;10.400;2022-11-24T09:21:11;9.85;;;4.07;;
934;SDS011;454;53.254;10.400;2022-11-24T09:23:39;7.60;;;3.55;;
934;SDS011;454;53.254;10.400;2022-11-24T09:26:08;3.35;;;3.15;;
934;SDS011;454;53.254;10.400;2022-11-24T09:28:37;4.00;;;2.25;;
934;SDS011;454;53.254;10.400;2022-11-24T09:31:04;3.75;;;3.53;;
934;SDS011;454;53.254;10.400;2022-11-24T09:33:33;3.65;;;2.92;;
934;SDS011;454;53.254;10.400;2022-11-24T09:36:02;2.60;;;2.50;;
934;SDS011;454;53.254;10.400;2022-11-24T09:38:29;1.77;;;1.67;;
934;SDS011;454;53.254;10.400;2022-11-24T09:41:02;2.00;;;2.00;;
934;SDS011;454;53.254;10.400;2022-11-24T09:43:44;7.15;;;2.80;;
934;SDS011;454;53.254;10.400;2022-11-24T09:46:19;1.73;;;1.67;;
934;SDS011;454;53.254;10.400;2022-11-24T09:48:52;2.20;;;2.05;;
934;SDS011;454;53.254;10.400;2022-11-24T09:51:24;8.73;;;2.15;;
934;SDS011;454;53.254;10.400;2022-11-24T09:53:56;1.50;;;1.50;;
934;SDS011;454;53.254;10.400;2022-11-24T09:56:26;2.97;;;1.02;;
934;SDS011;454;53.254;10.400;2022-11-24T09:58:56;1.60;;;1.50;;
934;SDS011;454;53.254;10.400;2022-11-24T10:01:27;2.30;;;1.65;;
934;SDS011;454;53.254;10.400;2022-11-24T10:03:55;1.52;;;1.42;;
934;SDS011;454;53.254;10.400;2022-11-24T10:06:24;1.55;;;1.55;;
934;SDS011;454;53.254;10.400;2022-11-24T10:11:49;1.95;;;1.48;;
934;SDS011;454;53.254;10.400;2022-11-24T10:14:27;2.55;;;2.50;;
934;SDS011;454;53.254;10.400;2022-11-24T10:17:12;5.68;;;2.78;;
934;SDS011;454;53.254;10.400;2022-11-24T10:19:52;2.00;;;1.90;;
934;SDS011;454;53.254;10.400;2022-11-24T10:22:32;0.90;;;0.90;;
934;SDS011;454;53.254;10.400;2022-11-24T10:25:10;3.22;;;1.33;;
934;SDS011;454;53.254;10.400;2022-11-24T10:27:44;5.57;;;2.08;;
934;SDS011;454;53.254;10.400;2022-11-24T10:30:15;4.75;;;2.83;;
934;SDS011;454;53.254;10.400;2022-11-24T10:32:45;2.03;;;1.92;;
934;SDS011;454;53.254;10.400;2022-11-24T10:35:15;2.13;;;2.03;;
934;SDS011;454;53.254;10.400;2022-11-24T10:37:47;2.80;;;1.88;;
934;SDS011;454;53.254;10.400;2022-11-24T10:40:23;1.63;;;1.63;;
934;SDS011;454;53.254;10.400;2022-11-24T10:42:57;2.20;;;2.10;;
934;SDS011;454;53.254;10.400;2022-11-24T10:45:25;1.83;;;1.83;;
934;SDS011;454;53.254;10.400;2022-11-24T10:47:54;1.50;;;1.38;;
934;SDS011;454;53.254;10.400;2022-11-24T10:50:23;12.52;;;2.67;;
934;SDS011;454;53.254;10.400;2022-11-24T10:52:55;13.40;;;2.20;;
934;SDS011;454;53.254;10.400;2022-11-24T10:58:22;2.60;;;2.40;;
934;SDS011;454;53.254;10.400;2022-11-24T11:00:51;1.75;;;1.52;;
934;SDS011;454;53.254;10.400;2022-11-24T11:03:19;8.20;;;2.15;;
934;SDS011;454;53.254;10.400;2022-11-24T11:05:48;5.25;;;2.17;;
934;SDS011;454;53.254;10.400;2022-11-24T11:08:19;13.60;;;2.58;;
934;SDS011;454;53.254;10.400;2022-11-24T11:11:06;4.53;;;2.28;;
934;SDS011;454;53.254;10.400;2022-11-24T11:13:39;4.65;;;2.10;;
934;SDS011;454;53.254;10.400;2022-11-24T11:16:18;1.33;;;1.30;;
934;SDS011;454;53.254;10.400;2022-11-24T11:18:49;6.38;;;1.42;;
934;SDS011;454;53.254;10.400;2022-11-24T11:21:23;11.10;;;2.50;;
934;SDS011;454;53.254;10.400;2022-11-24T11:23:54;1.42;;;1.42;;
934;SDS011;454;53.254;10.400;2022-11-24T11:26:29;6.88;;;2.22;;
934;SDS011;454;53.254;10.400;2022-11-24T11:28:59;1.65;;;1.20;;
934;SDS011;454;53.254;10.400;2022-11-24T11:31:29;2.15;;;1.98;;
934;SDS011;454;53.254;10.400;2022-11-24T11:33:58;8.52;;;2.70;;
934;SDS011;454;53.254;10.400;2022-11-24T11:36:27;8.38;;;2.25;;
934;SDS011;454;53.254;10.400;2022-11-24T11:38:56;1.80;;;1.70;;
934;SDS011;454;53.254;10.400;2022-11-24T11:41:25;4.63;;;2.85;;
934;SDS011;454;53.254;10.400;2022-11-24T11:44:00;3.10;;;1.85;;
934;SDS011;454;53.254;10.400;2022-11-24T11:46:33;6.95;;;1.27;;
934;SDS011;454;53.254;10.400;2022-11-24T11:49:00;1.60;;;1.60;;
934;SDS011;454;53.254;10.400;2022-11-24T11:54:32;4.10;;;1.65;;
934;SDS011;454;53.254;10.400;2022-11-24T11:57:09;2.40;;;2.05;;
934;SDS011;454;53.254;10.400;2022-11-24T11:59:45;13.70;;;3.17;;
934;SDS011;454;53.254;10.400;2022-11-24T12:02:41;2.05;;;1.60;;
934;SDS011;454;53.254;10.400;2022-11-24T12:05:27;19.52;;;2.30;;
934;SDS011;454;53.254;10.400;2022-11-24T12:08:03;3.00;;;2.85;;
934;SDS011;454;53.254;10.400;2022-11-24T12:10:37;2.35;;;2.15;;
934;SDS011;454;53.254;10.400;2022-11-24T12:13:20;2.65;;;2.22;;
934;SDS011;454;53.254;10.400;2022-11-24T12:16:02;3.92;;;2.25;;
934;SDS011;454;53.254;10.400;2022-11-24T12:18:37;1.55;;;1.45;;
934;SDS011;454;53.254;10.400;2022-11-24T12:21:10;5.00;;;1.77;;
934;SDS011;454;53.254;10.400;2022-11-24T12:23:44;1.95;;;1.50;;
934;SDS011;454;53.254;10.400;2022-11-24T12:26:25;9.10;;;3.35;;
934;SDS011;454;53.254;10.400;2022-11-24T12:29:02;5.47;;;2.05;;
934;SDS011;454;53.254;10.400;2022-11-24T12:31:50;8.05;;;1.80;;
934;SDS011;454;53.254;10.400;2022-11-24T12:34:23;2.58;;;2.47;;
934;SDS011;454;53.254;10.400;2022-11-24T12:37:06;2.95;;;1.58;;
934;SDS011;454;53.254;10.400;2022-11-24T12:39:44;2.78;;;2.33;;
934;SDS011;454;53.254;10.400;2022-11-24T12:42:22;3.85;;;2.47;;
934;SDS011;454;53.254;10.400;2022-11-24T12:45:04;6.57;;;1.35;;
934;SDS011;454;53.254;10.400;2022-11-24T12:47:40;1.90;;;1.90;;
934;SDS011;454;53.254;10.400;2022-11-24T12:50:18;4.15;;;1.50;;
934;SDS011;454;53.254;10.400;2022-11-24T12:52:49;2.05;;;1.40;;
934;SDS011;454;53.254;10.400;2022-11-24T12:55:19;4.03;;;2.70;;
934;SDS011;454;53.254;10.400;2022-11-24T12:57:51;2.28;;;1.50;;
934;SDS011;454;53.254;10.400;2022-11-24T13:00:26;7.53;;;1.20;;
934;SDS011;454;53.254;10.400;2022-11-24T13:03:02;5.85;;;2.58;;
934;SDS011;454;53.254;10.400;2022-11-24T13:05:37;0.90;;;0.90;;
934;SDS011;454;53.254;10.400;2022-11-24T13:08:12;12.15;;;1.77;;
934;SDS011;454;53.254;10.400;2022-11-24T13:10:40;3.65;;;1.25;;
934;SDS011;454;53.254;10.400;2022-11-24T13:13:09;1.60;;;1.50;;
934;SDS011;454;53.254;10.400;2022-11-24T13:18:43;11.27;;;2.58;;
934;SDS011;454;53.254;10.400;2022-11-24T13:21:31;4.90;;;2.58;;
934;SDS011;454;53.254;10.400;2022-11-24T13:24:19;3.80;;;2.25;;
934;SDS011;454;53.254;10.400;2022-11-24T13:26:48;1.50;;;1.50;;
934;SDS011;454;53.254;10.400;2022-11-24T13:29:31;1.45;;;1.40;;
934;SDS011;454;53.254;10.400;2022-11-24T13:35:11;3.60;;;2.22;;
934;SDS011;454;53.254;10.400;2022-11-24T13:37:46;2.45;;;1.98;;
934;SDS011;454;53.254;10.400;2022-11-24T13:43:19;7.28;;;2.55;;
934;SDS011;454;53.254;10.400;2022-11-24T13:45:49;3.17;;;2.38;;
934;SDS011;454;53.254;10.400;2022-11-24T13:51:24;2.15;;;2.00;;
934;SDS011;454;53.254;10.400;2022-11-24T13:53:52;2.08;;;1.98;;
934;SDS011;454;53.254;10.400;2022-11-24T13:56:21;6.22;;;2.63;;
934;SDS011;454;53.254;10.400;2022-11-24T13:58:53;1.85;;;1.70;;
934;SDS011;454;53.254;10.400;2022-11-24T14:01:23;2.80;;;2.60;;
934;SDS011;454;53.254;10.400;2022-11-24T14:04:00;4.57;;;3.60;;
934;SDS011;454;53.254;10.400;2022-11-24T14:06:36;10.95;;;3.33;;
934;SDS011;454;53.254;10.400;2022-11-24T14:09:15;5.65;;;2.63;;
934;SDS011;454;53.254;10.400;2022-11-24T14:11:53;2.80;;;2.30;;
934;SDS011;454;53.254;10.400;2022-11-24T14:14:27;1.73;;;1.63;;
934;SDS011;454;53.254;10.400;2022-11-24T14:17:09;2.05;;;1.95;;
934;SDS011;454;53.254;10.400;2022-11-24T14:19:41;7.53;;;2.40;;
934;SDS011;454;53.254;10.400;2022-11-24T14:22:13;2.30;;;2.10;;
934;SDS011;454;53.254;10.400;2022-11-24T14:24:43;6.97;;;1.85;;
934;SDS011;454;53.254;10.400;2022-11-24T14:27:12;5.18;;;2.17;;
934;SDS011;454;53.254;10.400;2022-11-24T14:29:50;5.68;;;1.95;;
934;SDS011;454;53.254;10.400;2022-11-24T14:32:20;5.47;;;2.88;;
934;SDS011;454;53.254;10.400;2022-11-24T14:34:47;5.43;;;2.95;;
934;SDS011;454;53.254;10.400;2022-11-24T14:37:15;1.60;;;1.48;;
934;SDS011;454;53.254;10.400;2022-11-24T14:39:43;4.53;;;2.35;;
934;SDS011;454;53.254;10.400;2022-11-24T14:42:15;1.70;;;1.40;;
934;SDS011;454;53.254;10.400;2022-11-24T14:44:45;6.38;;;1.58;;
934;SDS011;454;53.254;10.400;2022-11-24T14:47:17;4.70;;;2.10;;
934;SDS011;454;53.254;10.400;2022-11-24T14:49:48;1.55;;;1.52;;
934;SDS011;454;53.254;10.400;2022-11-24T14:52:17;7.78;;;2.75;;
934;SDS011;454;53.254;10.400;2022-11-24T14:54:46;3.70;;;1.65;;
934;SDS011;454;53.254;10.400;2022-11-24T14:57:22;3.30;;;1.50;;
934;SDS011;454;53.254;10.400;2022-11-24T15:00:12;5.15;;;2.50;;
934;SDS011;454;53.254;10.400;2022-11-24T15:02:45;4.45;;;1.92;;
934;SDS011;454;53.254;10.400;2022-11-24T15:05:15;5.80;;;2.20;;
934;SDS011;454;53.254;10.400;2022-11-24T15:07:43;3.45;;;1.95;;
934;SDS011;454;53.254;10.400;2022-11-24T15:10:18;7.35;;;1.83;;
934;SDS011;454;53.254;10.400;2022-11-24T15:12:50;5.43;;;2.92;;
934;SDS011;454;53.254;10.400;2022-11-24T15:15:19;7.40;;;1.30;;
934;SDS011;454;53.254;10.400;2022-11-24T15:17:50;3.17;;;2.88;;
934;SDS011;454;53.254;10.400;2022-11-24T15:20:20;1.48;;;1.48;;
934;SDS011;454;53.254;10.400;2022-11-24T15:22:51;1.35;;;1.35;;
934;SDS011;454;53.254;10.400;2022-11-24T15:25:42;2.38;;;1.92;;
934;SDS011;454;53.254;10.400;2022-11-24T15:28:09;4.85;;;2.17;;
934;SDS011;454;53.254;10.400;2022-11-24T15:30:36;7.10;;;2.97;;
934;SDS011;454;53.254;10.400;2022-11-24T15:33:10;2.55;;;2.33;;
934;SDS011;454;53.254;10.400;2022-11-24T15:35:38;2.78;;;2.63;;
934;SDS011;454;53.254;10.400;2022-11-24T15:38:05;3.33;;;2.17;;
934;SDS011;454;53.254;10.400;2022-11-24T15:40:32;1.75;;;1.65;;
934;SDS011;454;53.254;10.400;2022-11-24T15:42:58;1.60;;;1.50;;
934;SDS011;454;53.254;10.400;2022-11-24T15:45:25;2.30;;;2.20;;
934;SDS011;454;53.254;10.400;2022-11-24T15:47:52;1.55;;;1.45;;
934;SDS011;454;53.254;10.400;2022-11-24T15:50:20;8.27;;;2.13;;
934;SDS011;454;53.254;10.400;2022-11-24T15:52:47;2.50;;;2.40;;
934;SDS011;454;53.254;10.400;2022-11-24T15:55:18;8.23;;;3.80;;
934;SDS011;454;53.254;10.400;2022-11-24T15:57:47;6.50;;;3.10;;
934;SDS011;454;53.254;10.400;2022-11-24T16:00:15;2.90;;;2.70;;
934;SDS011;454;53.254;10.400;2022-11-24T16:02:43;4.00;;;2.40;;
934;SDS011;454;53.254;10.400;2022-11-24T16:05:09;4.32;;;1.92;;
934;SDS011;454;53.254;10.400;2022-11-24T16:07:38;4.53;;;2.85;;
934;SDS011;454;53.254;10.400;2022-11-24T16:10:05;2.30;;;2.10;;
934;SDS011;454;53.254;10.400;2022-11-24T16:12:37;1.35;;;1.17;;
934;SDS011;454;53.254;10.400;2022-11-24T16:15:04;2.17;;;2.17;;
934;SDS011;454;53.254;10.400;2022-11-24T16:17:31;4.43;;;3.20;;
934;SDS011;454;53.254;10.400;2022-11-24T16:19:58;2.55;;;2.47;;
934;SDS011;454;53.254;10.400;2022-11-24T16:22:24;3.25;;;2.95;;
934;SDS011;454;53.254;10.400;2022-11-24T16:24:52;1.98;;;1.85;;
934;SDS011;454;53.254;10.400;2022-11-24T16:27:19;2.20;;;2.15;;
934;SDS011;454;53.254;10.400;2022-11-24T16:29:46;3.92;;;3.28;;
934;SDS011;454;53.254;10.400;2022-11-24T16:32:12;12.98;;;5.20;;
934;SDS011;454;53.254;10.400;2022-11-24T16:34:39;16.83;;;4.20;;
934;SDS011;454;53.254;10.400;2022-11-24T16:37:06;3.65;;;3.35;;
934;SDS011;454;53.254;10.400;2022-11-24T16:39:32;5.25;;;4.70;;
934;SDS011;454;53.254;10.400;2022-11-24T16:42:00;6.40;;;3.63;;
934;SDS011;454;53.254;10.400;2022-11-24T16:44:28;3.05;;;2.85;;
934;SDS011;454;53.254;10.400;2022-11-24T16:46:54;14.13;;;3.13;;
934;SDS011;454;53.254;10.400;2022-11-24T16:49:21;4.53;;;4.15;;
934;SDS011;454;53.254;10.400;2022-11-24T16:51:48;4.40;;;3.97;;
934;SDS011;454;53.254;10.400;2022-11-24T16:54:15;3.70;;;3.50;;
934;SDS011;454;53.254;10.400;2022-11-24T16:56:41;5.43;;;4.40;;
934;SDS011;454;53.254;10.400;2022-11-24T16:59:10;3.53;;;2.95;;
934;SDS011;454;53.254;10.400;2022-11-24T17:01:36;5.45;;;3.70;;
934;SDS011;454;53.254;10.400;2022-11-24T17:04:04;29.08;;;8.60;;
934;SDS011;454;53.254;10.400;2022-11-24T17:06:31;11.25;;;6.60;;
934;SDS011;454;53.254;10.400;2022-11-24T17:08:58;9.20;;;5.43;;
934;SDS011;454;53.254;10.400;2022-11-24T17:11:25;6.57;;;6.05;;
934;SDS011;454;53.254;10.400;2022-11-24T17:13:54;6.03;;;4.20;;
934;SDS011;454;53.254;10.400;2022-11-24T17:16:24;4.07;;;3.75;;
934;SDS011;454;53.254;10.400;2022-11-24T17:18:51;5.22;;;4.22;;
934;SDS011;454;53.254;10.400;2022-11-24T17:21:19;6.18;;;5.50;;
934;SDS011;454;53.254;10.400;2022-11-24T17:23:47;5.05;;;4.68;;
934;SDS011;454;53.254;10.400;2022-11-24T17:26:18;8.52;;;4.68;;
934;SDS011;454;53.254;10.400;2022-11-24T17:28:44;5.38;;;4.75;;
934;SDS011;454;53.254;10.400;2022-11-24T17:31:14;4.82;;;3.97;;
934;SDS011;454;53.254;10.400;2022-11-24T17:33:46;5.55;;;5.15;;
934;SDS011;454;53.254;10.400;2022-11-24T17:36:13;3.05;;;2.95;;
934;SDS011;454;53.254;10.400;2022-11-24T17:38:40;6.22;;;5.22;;
934;SDS011;454;53.254;10.400;2022-11-24T17:41:07;6.57;;;4.82;;
934;SDS011;454;53.254;10.400;2022-11-24T17:43:34;9.73;;;4.60;;
934;SDS011;454;53.254;10.400;2022-11-24T17:46:01;5.72;;;5.40;;
934;SDS011;454;53.254;10.400;2022-11-24T17:48:28;6.95;;;5.60;;
934;SDS011;454;53.254;10.400;2022-11-24T17:51:00;10.82;;;4.65;;
934;SDS011;454;53.254;10.400;2022-11-24T17:53:28;5.50;;;4.32;;
934;SDS011;454;53.254;10.400;2022-11-24T17:55:57;4.93;;;3.97;;
934;SDS011;454;53.254;10.400;2022-11-24T17:58:25;10.18;;;6.68;;
934;SDS011;454;53.254;10.400;2022-11-24T18:00:52;11.85;;;9.93;;
934;SDS011;454;53.254;10.400;2022-11-24T18:03:19;5.93;;;5.43;;
934;SDS011;454;53.254;10.400;2022-11-24T18:05:46;6.45;;;5.45;;
934;SDS011;454;53.254;10.400;2022-11-24T18:08:14;5.70;;;5.20;;
934;SDS011;454;53.254;10.400;2022-11-24T18:10:41;10.65;;;8.43;;
934;SDS011;454;53.254;10.400;2022-11-24T18:13:08;6.80;;;6.20;;
934;SDS011;454;53.254;10.400;2022-11-24T18:15:35;14.75;;;4.57;;
934;SDS011;454;53.254;10.400;2022-11-24T18:18:01;10.25;;;5.65;;
934;SDS011;454;53.254;10.400;2022-11-24T18:20:29;9.07;;;7.85;;
934;SDS011;454;53.254;10.400;2022-11-24T18:22:57;8.25;;;6.55;;
934;SDS011;454;53.254;10.400;2022-11-24T18:25:25;5.85;;;5.03;;
934;SDS011;454;53.254;10.400;2022-11-24T18:27:53;8.13;;;6.60;;
934;SDS011;454;53.254;10.400;2022-11-24T18:30:20;9.00;;;6.10;;
934;SDS011;454;53.254;10.400;2022-11-24T18:32:46;5.75;;;5.30;;
934;SDS011;454;53.254;10.400;2022-11-24T18:35:13;6.53;;;5.90;;
934;SDS011;454;53.254;10.400;2022-11-24T18:37:40;4.47;;;4.18;;
934;SDS011;454;53.254;10.400;2022-11-24T18:40:08;7.15;;;5.40;;
934;SDS011;454;53.254;10.400;2022-11-24T18:42:37;6.88;;;5.93;;
934;SDS011;454;53.254;10.400;2022-11-24T18:45:04;7.88;;;6.25;;
934;SDS011;454;53.254;10.400;2022-11-24T18:47:32;12.02;;;5.32;;
934;SDS011;454;53.254;10.400;2022-11-24T18:49:59;6.63;;;4.90;;
934;SDS011;454;53.254;10.400;2022-11-24T18:52:26;9.00;;;5.90;;
934;SDS011;454;53.254;10.400;2022-11-24T18:54:52;10.15;;;6.25;;
934;SDS011;454;53.254;10.400;2022-11-24T18:57:19;6.97;;;5.65;;
934;SDS011;454;53.254;10.400;2022-11-24T18:59:47;5.85;;;5.38;;
934;SDS011;454;53.254;10.400;2022-11-24T19:02:14;10.75;;;6.05;;
934;SDS011;454;53.254;10.400;2022-11-24T19:04:40;5.68;;;5.18;;
934;SDS011;454;53.254;10.400;2022-11-24T19:07:07;10.88;;;5.88;;
934;SDS011;454;53.254;10.400;2022-11-24T19:09:34;7.28;;;6.57;;
934;SDS011;454;53.254;10.400;2022-11-24T19:12:01;6.55;;;6.05;;
934;SDS011;454;53.254;10.400;2022-11-24T19:14:29;8.20;;;7.40;;
934;SDS011;454;53.254;10.400;2022-11-24T19:16:57;10.15;;;7.20;;
934;SDS011;454;53.254;10.400;2022-11-24T19:19:25;8.85;;;7.82;;
934;SDS011;454;53.254;10.400;2022-11-24T19:21:53;8.98;;;7.95;;
934;SDS011;454;53.254;10.400;2022-11-24T19:24:20;9.57;;;8.88;;
934;SDS011;454;53.254;10.400;2022-11-24T19:26:46;7.88;;;6.75;;
934;SDS011;454;53.254;10.400;2022-11-24T19:29:15;9.63;;;8.43;;
934;SDS011;454;53.254;10.400;2022-11-24T19:31:41;8.18;;;7.05;;
934;SDS011;454;53.254;10.400;2022-11-24T19:34:10;8.88;;;7.50;;
934;SDS011;454;53.254;10.400;2022-11-24T19:36:36;10.10;;;9.10;;
934;SDS011;454;53.254;10.400;2022-11-24T19:39:04;9.15;;;7.30;;
934;SDS011;454;53.254;10.400;2022-11-24T19:41:31;13.15;;;4.57;;
934;SDS011;454;53.254;10.400;2022-11-24T19:43:59;7.72;;;5.95;;
934;SDS011;454;53.254;10.400;2022-11-24T19:46:26;8.07;;;7.20;;
934;SDS011;454;53.254;10.400;2022-11-24T19:48:54;11.38;;;6.53;;
934;SDS011;454;53.254;10.400;2022-11-24T19:51:25;6.22;;;5.43;;
934;SDS011;454;53.254;10.400;2022-11-24T19:53:54;5.70;;;5.30;;
934;SDS011;454;53.254;10.400;2022-11-24T19:56:22;5.13;;;4.70;;
934;SDS011;454;53.254;10.400;2022-11-24T19:58:50;5.47;;;4.63;;
934;SDS011;454;53.254;10.400;2022-11-24T20:01:19;7.88;;;7.13;;
934;SDS011;454;53.254;10.400;2022-11-24T20:03:53;5.10;;;4.63;;
934;SDS011;454;53.254;10.400;2022-11-24T20:09:09;7.93;;;7.25;;
934;SDS011;454;53.254;10.400;2022-11-24T20:11:38;4.95;;;4.55;;
934;SDS011;454;53.254;10.400;2022-11-24T20:14:05;5.75;;;5.20;;
934;SDS011;454;53.254;10.400;2022-11-24T20:16:33;7.32;;;6.68;;
934;SDS011;454;53.254;10.400;2022-11-24T20:19:00;7.15;;;5.82;;
934;SDS011;454;53.254;10.400;2022-11-24T20:21:29;7.43;;;6.57;;
934;SDS011;454;53.254;10.400;2022-11-24T20:23:58;9.15;;;8.43;;
934;SDS011;454;53.254;10.400;2022-11-24T20:26:28;9.68;;;5.47;;
934;SDS011;454;53.254;10.400;2022-11-24T20:28:57;4.30;;;3.88;;
934;SDS011;454;53.254;10.400;2022-11-24T20:31:25;8.13;;;5.82;;
934;SDS011;454;53.254;10.400;2022-11-24T20:33:53;7.10;;;3.60;;
934;SDS011;454;53.254;10.400;2022-11-24T20:36:22;6.18;;;4.88;;
934;SDS011;454;53.254;10.400;2022-11-24T20:38:50;6.20;;;5.70;;
934;SDS011;454;53.254;10.400;2022-11-24T20:41:18;4.38;;;3.97;;
934;SDS011;454;53.254;10.400;2022-11-24T20:43:48;3.13;;;2.85;;
934;SDS011;454;53.254;10.400;2022-11-24T20:46:17;7.05;;;4.82;;
934;SDS011;454;53.254;10.400;2022-11-24T20:48:45;5.75;;;4.63;;
934;SDS011;454;53.254;10.400;2022-11-24T20:51:13;5.35;;;5.07;;
934;SDS011;454;53.254;10.400;2022-11-24T20:53:42;6.05;;;4.63;;
934;SDS011;454;53.254;10.400;2022-11-24T20:56:10;3.97;;;3.67;;
934;SDS011;454;53.254;10.400;2022-11-24T20:58:38;5.07;;;3.38;;
934;SDS011;454;53.254;10.400;2022-11-24T21:01:07;6.50;;;5.00;;
934;SDS011;454;53.254;10.400;2022-11-24T21:03:35;5.05;;;4.20;;
934;SDS011;454;53.254;10.400;2022-11-24T21:06:02;6.97;;;5.70;;
934;SDS011;454;53.254;10.400;2022-11-24T21:08:30;9.05;;;4.82;;